Shinkai Maru — JJ4012 — position and weather

sailwx.info

Track history (hours):
 
Tides and Currents Weather Stations Pressure Air Temp Water Temp Dewpoint Dewpoint Depression Visibility Wind Speed Wind Dir Waves Ship Positions

Shinkai Maru

Last reported at 2017-Jan-17 10:32 UTC. Time now 2017-Jan-17 15:11 UTC.
Position N 35°11' E 139°45'.

Length 76 m; draft 4.1 m.

Type: Cargo ship. MMSI: 431301346.

Date/timePositionNaut miles runAvg speedWind from/ knotsBaromVisibWave heightAir tempDewpointWater temp
2017-Jan-17 10:32N 35°11' E 139°45'1111.3
2017-Jan-17 09:33N 35°22' E 139°42'1211.6
2017-Jan-17 08:34N 35°30' E 139°52'11 1.2
2017-Jan-16 23:09N 35°41' E 139°58'3 0.4
2017-Jan-16 14:07N 35°37' E 139°59'5 9.6
2017-Jan-16 13:33N 35°33' E 139°55'1111.5
2017-Jan-16 12:34N 35°24' E 139°46'10 9.9
2017-Jan-16 11:33N 35°14' E 139°47'240 9.5
2017-Jan-15 10:19N 34°26' E 135°01'911.8
2017-Jan-15 09:33N 34°35' E 135°03'14 0.6
2017-Jan-14 10:29N 34°41' E 134°47'910.1
2017-Jan-14 09:33N 34°38' E 134°58'10 9.8
2017-Jan-14 08:33N 34°37' E 135°10'6 6.0
2017-Jan-14 07:29N 34°42' E 135°14'0 0.2
2017-Jan-14 06:33N 34°42' E 135°15'1010.0
2017-Jan-14 05:32N 34°32' E 135°13'2010.3
2017-Jan-14 03:33N 34°14' E 135°00'  
2017-Jan-11 13:18N 34°11' E 134°60'1512.3
2017-Jan-11 12:04N 34°27' E 135°00'611.8
2017-Jan-11 11:32N 34°33' E 135°02'8 7.7
2017-Jan-11 10:28N 34°37' E 134°54'3 0.2
2017-Jan-10 16:31N 34°37' E 134°57'7 7.5
2017-Jan-10 15:33N 34°34' E 135°05'2110.4
2017-Jan-10 13:33N 34°14' E 134°60'239 9.2
2017-Jan-09 11:28N 35°08' E 139°43'1011.3
2017-Jan-09 10:33N 35°18' E 139°43'1010.6
2017-Jan-09 09:33N 35°28' E 139°48'1312.3
2017-Jan-09 08:30N 35°38' E 139°59'3 0.1
2017-Jan-07 23:33N 35°41' E 139°58'5 0.9
2017-Jan-07 18:14N 35°36' E 139°57'811.9
2017-Jan-07 17:33N 35°29' E 139°52'1111.6
2017-Jan-07 16:34N 35°19' E 139°44'1210.9
2017-Jan-07 15:29N 35°07' E 139°44'  
Track history (hours):
 
Tides and Currents Weather Stations Pressure Air Temp Water Temp Dewpoint Dewpoint Depression Visibility Wind Speed Wind Dir Waves Ship Positions

Shinkai Maru

Last reported at 2017-Jan-17 10:32 UTC. Time now 2017-Jan-17 15:11 UTC.
Position N 35°11' E 139°45'.

Length 76 m; draft 4.1 m.

Type: Cargo ship. MMSI: 431301346.

Date/timePositionNaut miles runAvg speedWind from/ knotsBaromVisibWave heightAir tempDewpointWater temp
2017-Jan-17 10:32N 35°11' E 139°45'1111.3
2017-Jan-17 09:33N 35°22' E 139°42'1211.6
2017-Jan-17 08:34N 35°30' E 139°52'11 1.2
2017-Jan-16 23:09N 35°41' E 139°58'3 0.4
2017-Jan-16 14:07N 35°37' E 139°59'5 9.6
2017-Jan-16 13:33N 35°33' E 139°55'1111.5
2017-Jan-16 12:34N 35°24' E 139°46'10 9.9
2017-Jan-16 11:33N 35°14' E 139°47'240 9.5
2017-Jan-15 10:19N 34°26' E 135°01'911.8
2017-Jan-15 09:33N 34°35' E 135°03'14 0.6
2017-Jan-14 10:29N 34°41' E 134°47'910.1
2017-Jan-14 09:33N 34°38' E 134°58'10 9.8
2017-Jan-14 08:33N 34°37' E 135°10'6 6.0
2017-Jan-14 07:29N 34°42' E 135°14'0 0.2
2017-Jan-14 06:33N 34°42' E 135°15'1010.0
2017-Jan-14 05:32N 34°32' E 135°13'2010.3
2017-Jan-14 03:33N 34°14' E 135°00'  
2017-Jan-11 13:18N 34°11' E 134°60'1512.3
2017-Jan-11 12:04N 34°27' E 135°00'611.8
2017-Jan-11 11:32N 34°33' E 135°02'8 7.7
2017-Jan-11 10:28N 34°37' E 134°54'3 0.2
2017-Jan-10 16:31N 34°37' E 134°57'7 7.5
2017-Jan-10 15:33N 34°34' E 135°05'2110.4
2017-Jan-10 13:33N 34°14' E 134°60'239 9.2
2017-Jan-09 11:28N 35°08' E 139°43'1011.3
2017-Jan-09 10:33N 35°18' E 139°43'1010.6
2017-Jan-09 09:33N 35°28' E 139°48'1312.3
2017-Jan-09 08:30N 35°38' E 139°59'3 0.1
2017-Jan-07 23:33N 35°41' E 139°58'5 0.9
2017-Jan-07 18:14N 35°36' E 139°57'811.9
2017-Jan-07 17:33N 35°29' E 139°52'1111.6
2017-Jan-07 16:34N 35°19' E 139°44'1210.9
2017-Jan-07 15:29N 35°07' E 139°44'  

Dump ship's entire track history